createdAt,value
2023-09-27T00:00:19.298Z,13
2023-09-27T00:02:03.762Z,13
2023-09-27T00:03:04.048Z,13
2023-09-27T00:04:02.889Z,12
2023-09-27T00:05:04.798Z,12
2023-09-27T00:06:03.582Z,13
2023-09-27T00:07:03.456Z,13
2023-09-27T00:09:03.681Z,13
2023-09-27T00:10:04.439Z,12
2023-09-27T00:12:02.798Z,12
2023-09-27T00:13:03.520Z,12
2023-09-27T00:14:03.122Z,12
2023-09-27T00:15:03.353Z,12
2023-09-27T00:16:03.107Z,12
2023-09-27T00:17:04.063Z,12
2023-09-27T00:19:03.336Z,13
2023-09-27T00:20:03.638Z,12
2023-09-27T00:21:03.249Z,12
2023-09-27T00:22:02.962Z,13
2023-09-27T00:24:03.501Z,13
2023-09-27T00:25:03.427Z,12
2023-09-27T00:26:03.211Z,12
2023-09-27T00:28:03.414Z,13
2023-09-27T00:29:03.079Z,13
2023-09-27T00:30:03.146Z,13
2023-09-27T00:31:02.674Z,13
2023-09-27T00:32:03.723Z,11
2023-09-27T00:33:03.763Z,12
2023-09-27T00:34:03.380Z,12
2023-09-27T00:35:08.634Z,12
2023-09-27T00:37:02.916Z,13
2023-09-27T00:38:03.886Z,12
2023-09-27T00:40:06.521Z,13
2023-09-27T00:42:03.458Z,13
2023-09-27T00:43:02.845Z,14
2023-09-27T00:44:03.699Z,13
2023-09-27T00:45:03.893Z,13
2023-09-27T00:46:03.794Z,14
2023-09-27T00:48:03.593Z,13
2023-09-27T00:49:03.179Z,12
2023-09-27T00:50:03.500Z,12
2023-09-27T00:51:03.324Z,13
2023-09-27T00:52:03.054Z,13
2023-09-27T00:54:03.471Z,14
2023-09-27T00:55:03.888Z,12
2023-09-27T00:56:03.565Z,14
2023-09-27T00:57:03.227Z,13
2023-09-27T00:58:02.802Z,13
2023-09-27T00:59:05.132Z,14
2023-09-27T01:00:03.994Z,13
2023-09-27T01:02:03.937Z,13
2023-09-27T01:04:03.452Z,12
2023-09-27T01:05:03.832Z,13
2023-09-27T01:06:03.752Z,13
2023-09-27T01:08:03.186Z,13
2023-09-27T01:09:03.288Z,12
2023-09-27T01:10:03.955Z,13
2023-09-27T01:11:03.613Z,13
2023-09-27T01:12:03.418Z,13
2023-09-27T01:13:03.385Z,12
2023-09-27T01:14:03.239Z,12
2023-09-27T01:15:03.552Z,12
2023-09-27T01:16:03.391Z,12
2023-09-27T01:17:03.219Z,12
2023-09-27T01:18:03.120Z,12
2023-09-27T01:19:03.113Z,12
2023-09-27T01:20:03.484Z,13
2023-09-27T01:21:03.144Z,13
2023-09-27T01:22:02.695Z,12
2023-09-27T01:23:03.610Z,12
2023-09-27T01:25:03.345Z,13
2023-09-27T01:26:02.961Z,13
2023-09-27T01:27:05.810Z,13
2023-09-27T01:29:03.415Z,13
2023-09-27T01:30:06.263Z,12
2023-09-27T01:32:03.393Z,12
2023-09-27T01:33:03.048Z,12
2023-09-27T01:35:03.847Z,12
2023-09-27T01:36:03.416Z,12
2023-09-27T01:38:03.904Z,13
2023-09-27T01:39:03.684Z,13
2023-09-27T01:40:04.107Z,12
2023-09-27T01:42:03.346Z,12
2023-09-27T01:43:02.893Z,12
2023-09-27T01:44:03.205Z,14
2023-09-27T01:45:03.339Z,12
2023-09-27T01:46:03.357Z,11
2023-09-27T01:47:03.215Z,12
2023-09-27T01:48:03.292Z,11
2023-09-27T01:49:02.927Z,12
2023-09-27T01:50:03.403Z,11
2023-09-27T01:51:03.169Z,12
2023-09-27T01:52:02.752Z,11
2023-09-27T01:53:03.629Z,13
2023-09-27T01:55:03.172Z,12
2023-09-27T01:56:02.756Z,11
2023-09-27T01:57:03.487Z,11
2023-09-27T01:58:03.178Z,12
2023-09-27T02:00:05.716Z,12
2023-09-27T02:02:02.934Z,11
2023-09-27T02:03:04.586Z,12
2023-09-27T02:05:04.052Z,12
2023-09-27T02:07:03.514Z,13
2023-09-27T02:08:03.742Z,13
2023-09-27T02:09:03.796Z,13
2023-09-27T02:10:04.516Z,13
2023-09-27T02:12:02.626Z,12
2023-09-27T02:13:03.211Z,11
2023-09-27T02:14:02.787Z,12
2023-09-27T02:15:03.905Z,12
2023-09-27T02:16:03.778Z,12
2023-09-27T02:17:03.682Z,11
2023-09-27T02:18:03.741Z,11
2023-09-27T02:20:04.108Z,11
2023-09-27T02:22:03.385Z,11
2023-09-27T02:23:03.416Z,11
2023-09-27T02:24:03.105Z,12
2023-09-27T02:25:03.382Z,12
2023-09-27T02:26:03.253Z,11
2023-09-27T02:27:02.928Z,12
2023-09-27T02:28:03.591Z,12
2023-09-27T02:29:03.101Z,12
2023-09-27T02:30:03.276Z,12
2023-09-27T02:31:02.952Z,12
2023-09-27T02:32:02.634Z,11
2023-09-27T02:33:03.619Z,11
2023-09-27T02:34:03.389Z,12
2023-09-27T02:35:03.760Z,11
2023-09-27T02:38:03.274Z,13
2023-09-27T02:39:03.017Z,12
2023-09-27T02:40:03.666Z,13
2023-09-27T02:41:03.373Z,12
2023-09-27T02:42:03.078Z,11
2023-09-27T02:44:03.797Z,13
2023-09-27T02:45:03.844Z,13
2023-09-27T02:46:03.727Z,13
2023-09-27T02:47:03.619Z,13
2023-09-27T02:48:03.586Z,13
2023-09-27T02:49:03.390Z,12
2023-09-27T02:50:03.998Z,13
2023-09-27T02:52:02.898Z,15
2023-09-27T02:53:03.656Z,14
2023-09-27T02:55:03.192Z,13
2023-09-27T02:56:02.662Z,14
2023-09-27T02:57:03.181Z,13
2023-09-27T02:58:02.772Z,14
2023-09-27T02:59:03.661Z,13
2023-09-27T03:00:05.045Z,13
2023-09-27T03:02:06.068Z,13
2023-09-27T03:03:02.757Z,14
2023-09-27T03:04:03.720Z,14
2023-09-27T03:05:04.141Z,13
2023-09-27T03:07:03.378Z,15
2023-09-27T03:08:03.374Z,14
2023-09-27T03:09:03.242Z,13
2023-09-27T03:10:03.888Z,13
2023-09-27T03:11:03.573Z,12
2023-09-27T03:13:03.019Z,13
2023-09-27T03:14:03.127Z,14
2023-09-27T03:15:03.482Z,13
2023-09-27T03:16:03.232Z,14
2023-09-27T03:17:03.444Z,14
2023-09-27T03:18:03.286Z,13
2023-09-27T03:20:04.460Z,12
2023-09-27T03:22:02.905Z,12
2023-09-27T03:23:03.708Z,13
2023-09-27T03:24:03.346Z,12
2023-09-27T03:25:03.467Z,12
2023-09-27T03:26:03.298Z,13
2023-09-27T03:27:02.910Z,13
2023-09-27T03:28:03.487Z,13
2023-09-27T03:29:03.078Z,14
2023-09-27T03:30:03.183Z,13
2023-09-27T03:31:02.734Z,12
2023-09-27T03:32:05.888Z,14
2023-09-27T03:33:02.861Z,13
2023-09-27T03:34:03.608Z,14
2023-09-27T03:35:04.194Z,13
2023-09-27T03:37:03.429Z,14
2023-09-27T03:38:03.365Z,13
2023-09-27T03:39:08.221Z,13
2023-09-27T03:42:03.989Z,12
2023-09-27T03:44:03.506Z,13
2023-09-27T03:45:04.053Z,13
2023-09-27T03:47:04.163Z,12
2023-09-27T03:49:03.325Z,14
2023-09-27T03:50:03.938Z,15
2023-09-27T03:52:03.323Z,14
2023-09-27T03:53:02.875Z,15
2023-09-27T03:54:03.505Z,14
2023-09-27T03:55:03.580Z,15
2023-09-27T03:56:03.254Z,14
2023-09-27T03:57:02.952Z,14
2023-09-27T03:58:03.877Z,15
2023-09-27T03:59:03.710Z,14
2023-09-27T04:00:14.240Z,14
2023-09-27T04:02:04.281Z,12
2023-09-27T04:03:03.640Z,14
2023-09-27T04:04:05.103Z,14
2023-09-27T04:06:03.297Z,13
2023-09-27T04:07:03.812Z,12
2023-09-27T04:08:04.555Z,12
2023-09-27T04:10:04.009Z,13
2023-09-27T04:12:03.879Z,13
2023-09-27T04:13:03.486Z,13
2023-09-27T04:14:03.286Z,13
2023-09-27T04:15:03.407Z,15
2023-09-27T04:16:03.778Z,13
2023-09-27T04:17:04.289Z,13
2023-09-27T04:19:02.750Z,13
2023-09-27T04:20:04.377Z,13
2023-09-27T04:22:02.961Z,13
2023-09-27T04:23:03.799Z,13
2023-09-27T04:24:03.425Z,13
2023-09-27T04:25:04.297Z,13
2023-09-27T04:27:03.797Z,14
2023-09-27T04:28:03.647Z,14
2023-09-27T04:29:07.860Z,14
2023-09-27T04:31:03.650Z,13
2023-09-27T04:32:03.530Z,13
2023-09-27T04:33:03.733Z,13
2023-09-27T04:35:04.101Z,13
2023-09-27T04:37:03.305Z,14
2023-09-27T04:38:03.167Z,13
2023-09-27T04:39:02.815Z,14
2023-09-27T04:40:04.516Z,14
2023-09-27T04:42:02.910Z,13
2023-09-27T04:43:03.528Z,14
2023-09-27T04:44:03.059Z,14
2023-09-27T04:45:03.583Z,14
2023-09-27T04:46:03.226Z,14
2023-09-27T04:48:03.956Z,15
2023-09-27T04:50:03.952Z,14
2023-09-27T04:52:03.310Z,15
2023-09-27T04:53:03.095Z,14
2023-09-27T04:55:04.051Z,14
2023-09-27T04:57:03.364Z,14
2023-09-27T04:58:02.933Z,13
2023-09-27T04:59:03.630Z,15
2023-09-27T05:00:05.290Z,13
2023-09-27T05:02:03.515Z,15
2023-09-27T05:03:03.337Z,14
2023-09-27T05:04:03.218Z,13
2023-09-27T05:05:03.541Z,12
2023-09-27T05:06:03.237Z,14
2023-09-27T05:07:03.082Z,13
2023-09-27T05:08:03.159Z,14
2023-09-27T05:09:02.959Z,14
2023-09-27T05:10:04.523Z,14
2023-09-27T05:12:03.052Z,13
2023-09-27T05:13:02.858Z,12
2023-09-27T05:14:03.703Z,13
2023-09-27T05:15:03.721Z,14
2023-09-27T05:16:03.547Z,13
2023-09-27T05:17:03.361Z,13
2023-09-27T05:18:03.201Z,13
2023-09-27T05:19:02.750Z,13
2023-09-27T05:20:03.986Z,13
2023-09-27T05:22:02.946Z,13
2023-09-27T05:23:03.830Z,13
2023-09-27T05:24:03.373Z,13
2023-09-27T05:25:03.583Z,13
2023-09-27T05:26:03.163Z,13
2023-09-27T05:28:03.349Z,13
2023-09-27T05:29:04.067Z,15
2023-09-27T05:31:03.195Z,15
2023-09-27T05:32:03.031Z,14
2023-09-27T05:33:02.919Z,14
2023-09-27T05:34:03.512Z,14
2023-09-27T05:35:03.983Z,14
2023-09-27T05:37:03.465Z,14
2023-09-27T05:38:03.217Z,14
2023-09-27T05:39:02.920Z,16
2023-09-27T05:40:04.680Z,15
2023-09-27T05:42:03.095Z,13
2023-09-27T05:43:03.172Z,13
2023-09-27T05:44:03.111Z,15
2023-09-27T05:45:03.400Z,15
2023-09-27T05:46:03.025Z,13
2023-09-27T05:47:03.078Z,14
2023-09-27T05:48:03.910Z,14
2023-09-27T05:49:03.503Z,14
2023-09-27T05:50:03.860Z,14
2023-09-27T05:52:03.050Z,14
2023-09-27T05:53:02.737Z,14
2023-09-27T05:54:03.376Z,13
2023-09-27T05:55:03.598Z,18
2023-09-27T05:56:03.172Z,15
2023-09-27T05:58:03.262Z,16
2023-09-27T05:59:02.670Z,14
2023-09-27T06:00:11.977Z,14
2023-09-27T06:02:04.154Z,15
2023-09-27T06:04:03.761Z,16
2023-09-27T06:05:03.981Z,14
2023-09-27T06:07:03.036Z,14
2023-09-27T06:08:02.868Z,14
2023-09-27T06:09:03.867Z,14
2023-09-27T06:10:05.206Z,13
2023-09-27T06:12:03.099Z,15
2023-09-27T06:13:02.716Z,14
2023-09-27T06:14:03.640Z,15
2023-09-27T06:15:04.105Z,14
2023-09-27T06:17:03.953Z,14
2023-09-27T06:19:03.429Z,14
2023-09-27T06:20:03.946Z,14
2023-09-27T06:22:04.621Z,14
2023-09-27T06:24:03.564Z,15
2023-09-27T06:25:06.733Z,16
2023-09-27T06:27:03.285Z,16
2023-09-27T06:28:03.189Z,20
2023-09-27T06:29:05.425Z,18
2023-09-27T06:32:03.044Z,18
2023-09-27T06:33:03.192Z,15
2023-09-27T06:34:03.041Z,17
2023-09-27T06:35:03.349Z,18
2023-09-27T06:37:02.973Z,16
2023-09-27T06:38:03.130Z,16
2023-09-27T06:39:03.296Z,16
2023-09-27T06:40:04.786Z,16
2023-09-27T06:42:03.110Z,16
2023-09-27T06:43:02.897Z,17
2023-09-27T06:44:03.820Z,16
2023-09-27T06:45:04.204Z,17
2023-09-27T06:47:05.098Z,15
2023-09-27T06:49:03.736Z,16
2023-09-27T06:50:04.208Z,17
2023-09-27T06:52:03.808Z,17
2023-09-27T06:53:33.499Z,17
2023-09-27T06:55:03.577Z,15
2023-09-27T06:56:03.796Z,17
2023-09-27T06:57:03.712Z,16
2023-09-27T06:58:03.391Z,15
2023-09-27T06:59:03.516Z,16
2023-09-27T07:00:08.874Z,16
2023-09-27T07:02:03.476Z,15
2023-09-27T07:03:03.693Z,17
2023-09-27T07:04:03.990Z,16
2023-09-27T07:05:03.349Z,15
2023-09-27T07:07:03.510Z,15
2023-09-27T07:08:03.109Z,14
2023-09-27T07:09:03.539Z,15
2023-09-27T07:10:03.815Z,15
2023-09-27T07:11:03.847Z,15
2023-09-27T07:13:03.056Z,14
2023-09-27T07:15:03.695Z,14
2023-09-27T07:16:03.392Z,15
2023-09-27T07:17:03.694Z,15
2023-09-27T07:18:04.610Z,15
2023-09-27T07:19:03.408Z,15
2023-09-27T07:20:03.977Z,16
2023-09-27T07:22:03.311Z,14
2023-09-27T07:23:02.883Z,14
2023-09-27T07:24:03.502Z,14
2023-09-27T07:25:03.812Z,15
2023-09-27T07:26:03.704Z,17
2023-09-27T07:27:03.886Z,15
2023-09-27T07:28:03.748Z,16
2023-09-27T07:29:03.534Z,16
2023-09-27T07:30:03.869Z,16
2023-09-27T07:32:03.469Z,16
2023-09-27T07:33:03.188Z,16
2023-09-27T07:34:03.030Z,16
2023-09-27T07:35:03.545Z,16
2023-09-27T07:36:03.200Z,17
2023-09-27T07:37:02.944Z,17
2023-09-27T07:38:03.474Z,17
2023-09-27T07:39:03.264Z,16
2023-09-27T07:40:04.161Z,15
2023-09-27T07:42:03.566Z,17
2023-09-27T07:43:03.158Z,14
2023-09-27T07:44:03.142Z,16
2023-09-27T07:45:03.657Z,16
2023-09-27T07:46:03.245Z,15
2023-09-27T07:47:03.014Z,16
2023-09-27T07:48:03.661Z,15
2023-09-27T07:50:03.770Z,14
2023-09-27T07:51:03.436Z,15
2023-09-27T07:52:02.996Z,17
2023-09-27T07:54:03.801Z,14
2023-09-27T07:55:03.839Z,15
2023-09-27T07:56:03.611Z,15
2023-09-27T07:58:02.716Z,18
2023-09-27T07:59:03.580Z,16
2023-09-27T08:00:07.612Z,16
2023-09-27T08:02:03.817Z,13
2023-09-27T08:03:04.540Z,15
2023-09-27T08:04:04.402Z,17
2023-09-27T08:07:03.518Z,17
2023-09-27T08:08:03.557Z,17
2023-09-27T08:09:03.450Z,16
2023-09-27T08:10:22.956Z,19
2023-09-27T08:12:03.605Z,17
2023-09-27T08:13:03.485Z,18
2023-09-27T08:14:03.646Z,18
2023-09-27T08:15:03.901Z,18
2023-09-27T08:16:03.417Z,18
2023-09-27T08:17:04.045Z,17
2023-09-27T08:18:04.123Z,17
2023-09-27T08:19:03.408Z,17
2023-09-27T08:20:04.387Z,18
2023-09-27T08:22:03.222Z,17
2023-09-27T08:23:03.587Z,18
2023-09-27T08:25:03.957Z,17
2023-09-27T08:26:03.677Z,17
2023-09-27T08:27:03.212Z,16
2023-09-27T08:28:02.990Z,17
2023-09-27T08:29:02.741Z,16
2023-09-27T08:30:05.041Z,16
2023-09-27T08:32:03.718Z,16
2023-09-27T08:33:04.089Z,17
2023-09-27T08:35:04.601Z,18
2023-09-27T08:37:02.893Z,15
2023-09-27T08:38:03.977Z,15
2023-09-27T08:40:04.530Z,15
2023-09-27T08:42:03.080Z,15
2023-09-27T08:43:02.798Z,15
2023-09-27T08:44:03.908Z,14
2023-09-27T08:45:05.175Z,15
2023-09-27T08:47:03.611Z,17
2023-09-27T08:48:03.934Z,16
2023-09-27T08:49:03.711Z,15
2023-09-27T08:50:04.539Z,15
2023-09-27T08:52:02.843Z,14
2023-09-27T08:53:03.905Z,15
2023-09-27T08:54:03.626Z,17
2023-09-27T08:55:04.261Z,16
2023-09-27T08:57:03.379Z,15
2023-09-27T08:58:02.890Z,16
2023-09-27T08:59:03.591Z,17
2023-09-27T09:00:06.589Z,14
2023-09-27T09:02:03.319Z,14
2023-09-27T09:03:04.691Z,14
2023-09-27T09:04:03.726Z,14
2023-09-27T09:05:04.702Z,14
2023-09-27T09:07:02.896Z,15
2023-09-27T09:08:03.635Z,15
2023-09-27T09:09:03.437Z,15
2023-09-27T09:10:04.552Z,15
2023-09-27T09:12:02.896Z,15
2023-09-27T09:13:03.448Z,14
2023-09-27T09:14:02.973Z,13
2023-09-27T09:15:03.582Z,14
2023-09-27T09:16:04.903Z,14
2023-09-27T09:18:03.522Z,14
2023-09-27T09:20:03.606Z,14
2023-09-27T09:21:03.475Z,14
2023-09-27T09:22:03.180Z,15
2023-09-27T09:23:03.319Z,14
2023-09-27T09:24:02.839Z,14
2023-09-27T09:25:04.040Z,16
2023-09-27T09:27:02.991Z,15
2023-09-27T09:28:02.685Z,17
2023-09-27T09:29:04.248Z,15
2023-09-27T09:30:03.411Z,14
2023-09-27T09:33:03.550Z,16
2023-09-27T09:34:03.294Z,14
2023-09-27T09:35:03.523Z,14
2023-09-27T09:36:03.474Z,14
2023-09-27T09:37:03.045Z,14
2023-09-27T09:39:03.886Z,14
2023-09-27T09:40:04.399Z,13
2023-09-27T09:42:03.555Z,15
2023-09-27T09:43:02.946Z,15
2023-09-27T09:44:03.891Z,15
2023-09-27T09:45:04.427Z,15
2023-09-27T09:47:02.678Z,14
2023-09-27T09:48:03.821Z,14
2023-09-27T09:49:03.557Z,14
2023-09-27T09:50:03.657Z,13
2023-09-27T09:51:03.330Z,14
2023-09-27T09:52:03.401Z,15
2023-09-27T09:53:03.038Z,15
2023-09-27T09:56:38.287Z,14
2023-09-27T09:59:03.287Z,15
2023-09-27T10:00:03.557Z,15
2023-09-27T10:01:03.519Z,15
2023-09-27T10:03:03.497Z,15
2023-09-27T10:04:03.642Z,15
2023-09-27T10:05:03.872Z,15
2023-09-27T10:06:03.662Z,14
2023-09-27T10:08:02.877Z,14
2023-09-27T10:09:03.760Z,15
2023-09-27T10:10:04.538Z,14
2023-09-27T10:12:03.445Z,14
2023-09-27T10:14:02.887Z,15
2023-09-27T10:15:04.148Z,15
2023-09-27T10:17:03.298Z,14
2023-09-27T10:18:03.271Z,14
2023-09-27T10:19:03.006Z,15
2023-09-27T10:20:03.379Z,14
2023-09-27T10:21:02.968Z,13
2023-09-27T10:22:02.696Z,13
2023-09-27T10:23:03.417Z,14
2023-09-27T10:24:03.082Z,14
2023-09-27T10:25:03.469Z,14
2023-09-27T10:26:03.192Z,14
2023-09-27T10:28:03.353Z,14
2023-09-27T10:29:02.949Z,14
2023-09-27T10:30:04.225Z,13
2023-09-27T10:32:03.226Z,15
2023-09-27T10:33:03.248Z,15
2023-09-27T10:35:04.126Z,15
2023-09-27T10:37:20.359Z,17
2023-09-27T10:40:04.811Z,15
2023-09-27T10:42:04.211Z,17
2023-09-27T10:45:03.995Z,15
2023-09-27T10:47:03.432Z,16
2023-09-27T10:48:03.158Z,15
2023-09-27T10:50:03.930Z,15
2023-09-27T10:51:03.539Z,14
2023-09-27T10:52:07.983Z,15
2023-09-27T10:54:03.171Z,15
2023-09-27T10:55:03.375Z,16
2023-09-27T10:56:03.096Z,15
2023-09-27T10:58:03.628Z,16
2023-09-27T11:00:04.055Z,14
2023-09-27T11:01:04.204Z,15
2023-09-27T11:03:04.007Z,16
2023-09-27T11:05:04.536Z,14
2023-09-27T11:06:03.285Z,15
2023-09-27T11:08:03.643Z,15
2023-09-27T11:09:03.637Z,16
2023-09-27T11:10:04.235Z,15
2023-09-27T11:12:03.708Z,16
2023-09-27T11:14:03.119Z,16
2023-09-27T11:15:03.920Z,16
2023-09-27T11:16:03.880Z,16
2023-09-27T11:18:03.975Z,16
2023-09-27T11:19:02.699Z,16
2023-09-27T11:20:03.853Z,16
2023-09-27T11:21:03.414Z,16
2023-09-27T11:22:04.594Z,15
2023-09-27T11:23:03.272Z,16
2023-09-27T11:24:02.990Z,15
2023-09-27T11:25:03.359Z,14
2023-09-27T11:26:03.093Z,15
2023-09-27T11:28:03.777Z,15
2023-09-27T11:29:03.283Z,14
2023-09-27T11:30:03.489Z,15
2023-09-27T11:32:03.236Z,17
2023-09-27T11:33:03.124Z,16
2023-09-27T11:35:04.244Z,15
2023-09-27T11:37:03.523Z,15
2023-09-27T11:38:03.347Z,15
2023-09-27T11:39:03.072Z,14
2023-09-27T11:40:03.589Z,14
2023-09-27T11:41:03.183Z,15
2023-09-27T11:42:03.129Z,15
2023-09-27T11:43:02.735Z,15
2023-09-27T11:44:03.403Z,15
2023-09-27T11:45:03.671Z,17
2023-09-27T11:46:03.278Z,16
2023-09-27T11:47:03.151Z,16
2023-09-27T11:48:03.653Z,15
2023-09-27T11:49:03.452Z,14
2023-09-27T11:50:03.661Z,16
2023-09-27T11:51:03.745Z,15
2023-09-27T11:53:03.270Z,15
2023-09-27T11:54:02.952Z,15
2023-09-27T11:55:04.108Z,15
2023-09-27T11:57:03.565Z,15
2023-09-27T11:58:03.471Z,15
2023-09-27T11:59:03.202Z,14
2023-09-27T12:00:09.708Z,14
2023-09-27T12:02:52.663Z,14
2023-09-27T12:04:09.023Z,14
2023-09-27T12:06:05.470Z,15
2023-09-27T12:07:03.496Z,15
2023-09-27T12:09:03.437Z,15
2023-09-27T12:10:06.390Z,18
2023-09-27T12:12:03.332Z,15
2023-09-27T12:13:02.783Z,15
2023-09-27T12:14:03.425Z,15
2023-09-27T12:15:03.588Z,16
2023-09-27T12:16:03.015Z,15
2023-09-27T12:18:03.974Z,15
2023-09-27T12:20:03.590Z,16
2023-09-27T12:21:03.216Z,15
2023-09-27T12:23:02.724Z,17
2023-09-27T12:24:04.758Z,16
2023-09-27T12:26:03.455Z,15
2023-09-27T12:27:02.988Z,15
2023-09-27T12:29:03.437Z,15
2023-09-27T12:30:03.670Z,15
2023-09-27T12:32:03.106Z,15
2023-09-27T12:33:03.324Z,15
2023-09-27T12:34:03.244Z,15
2023-09-27T12:35:03.298Z,15
2023-09-27T12:36:03.008Z,15
2023-09-27T12:38:03.297Z,15
2023-09-27T12:39:03.200Z,15
2023-09-27T12:40:03.715Z,15
2023-09-27T12:41:03.474Z,16
2023-09-27T12:42:03.157Z,16
2023-09-27T12:44:03.475Z,15
2023-09-27T12:45:04.806Z,15
2023-09-27T12:47:03.348Z,14
2023-09-27T12:48:03.637Z,15
2023-09-27T12:50:06.179Z,14
2023-09-27T12:52:03.591Z,15
2023-09-27T12:53:03.287Z,16
2023-09-27T12:54:02.882Z,16
2023-09-27T12:55:04.520Z,15
2023-09-27T12:57:02.926Z,15
2023-09-27T12:58:04.519Z,15
2023-09-27T13:00:04.100Z,16
2023-09-27T13:01:02.812Z,15
2023-09-27T13:02:03.574Z,17
2023-09-27T13:03:03.738Z,16
2023-09-27T13:04:04.242Z,15
2023-09-27T13:05:03.428Z,15
2023-09-27T13:06:04.176Z,15
2023-09-27T13:08:03.712Z,16
2023-09-27T13:09:03.346Z,15
2023-09-27T13:10:03.958Z,15
2023-09-27T13:11:03.510Z,15
2023-09-27T13:12:03.310Z,15
2023-09-27T13:14:03.203Z,16
2023-09-27T13:15:03.576Z,15
2023-09-27T13:16:03.323Z,15
2023-09-27T13:17:03.210Z,15
2023-09-27T13:18:03.382Z,15
2023-09-27T13:19:03.340Z,15
2023-09-27T13:20:03.504Z,17
2023-09-27T13:21:03.092Z,17
2023-09-27T13:22:02.817Z,17
2023-09-27T13:23:03.527Z,17
2023-09-27T13:24:03.276Z,17
2023-09-27T13:25:08.427Z,14
2023-09-27T13:28:03.519Z,15
2023-09-27T13:29:03.056Z,16
2023-09-27T13:30:03.393Z,15
2023-09-27T13:31:03.461Z,15
2023-09-27T13:33:03.304Z,15
2023-09-27T13:34:13.473Z,15
2023-09-27T13:36:03.714Z,15
2023-09-27T13:38:03.145Z,15
2023-09-27T13:39:03.060Z,15
2023-09-27T13:40:04.233Z,17
2023-09-27T13:42:03.651Z,16
2023-09-27T13:43:03.263Z,15
2023-09-27T13:44:02.928Z,15
2023-09-27T13:45:04.600Z,15
2023-09-27T13:47:03.096Z,15
2023-09-27T13:48:03.381Z,16
2023-09-27T13:50:03.108Z,16
2023-09-27T13:52:03.653Z,15
2023-09-27T13:53:03.345Z,15
2023-09-27T13:54:03.260Z,15
2023-09-27T13:55:03.527Z,15
2023-09-27T13:56:03.085Z,15
2023-09-27T13:57:02.931Z,16
2023-09-27T13:58:03.571Z,16
2023-09-27T13:59:03.156Z,16
2023-09-27T14:00:11.683Z,16
2023-09-27T14:02:02.925Z,16
2023-09-27T14:03:04.169Z,16
2023-09-27T14:05:03.993Z,16
2023-09-27T14:07:04.101Z,16
2023-09-27T14:08:02.634Z,16
2023-09-27T14:09:03.909Z,16
2023-09-27T14:10:06.605Z,15
2023-09-27T14:12:03.547Z,16
2023-09-27T14:13:03.063Z,16
2023-09-27T14:14:03.166Z,16
2023-09-27T14:15:03.788Z,15
2023-09-27T14:16:04.074Z,16
2023-09-27T14:18:04.373Z,16
2023-09-27T14:20:03.312Z,17
2023-09-27T14:21:03.259Z,16
2023-09-27T14:23:02.813Z,17
2023-09-27T14:24:03.932Z,16
2023-09-27T14:25:03.571Z,16
2023-09-27T14:27:03.322Z,16
2023-09-27T14:28:02.943Z,16
2023-09-27T14:29:03.562Z,17
2023-09-27T14:30:04.920Z,18
2023-09-27T14:32:03.408Z,17
2023-09-27T14:33:03.302Z,17
2023-09-27T14:34:05.602Z,17
2023-09-27T14:36:03.517Z,16
2023-09-27T14:37:09.030Z,17
2023-09-27T14:39:04.121Z,16
2023-09-27T14:40:03.520Z,16
2023-09-27T14:42:02.946Z,16
2023-09-27T14:43:03.562Z,16
2023-09-27T14:44:03.411Z,15
2023-09-27T14:45:33.128Z,16
2023-09-27T14:47:03.877Z,16
2023-09-27T14:48:03.812Z,16
2023-09-27T14:49:03.733Z,16
2023-09-27T14:50:03.946Z,17
2023-09-27T14:51:03.397Z,16
2023-09-27T14:53:02.696Z,16
2023-09-27T14:54:03.325Z,16
2023-09-27T14:55:03.548Z,16
2023-09-27T14:56:03.101Z,17
2023-09-27T14:58:02.730Z,15
2023-09-27T14:59:05.155Z,15
2023-09-27T15:01:03.449Z,14
2023-09-27T15:02:03.179Z,15
2023-09-27T15:03:03.650Z,14
2023-09-27T15:04:03.821Z,14
2023-09-27T15:05:05.276Z,15
2023-09-27T15:07:02.608Z,16
2023-09-27T15:08:03.415Z,15
2023-09-27T15:09:02.966Z,15
2023-09-27T15:10:04.368Z,15
2023-09-27T15:12:02.626Z,15
2023-09-27T15:13:03.447Z,15
2023-09-27T15:14:03.180Z,16
2023-09-27T15:15:03.360Z,14
2023-09-27T15:16:03.320Z,14
2023-09-27T15:17:03.118Z,14
2023-09-27T15:19:03.352Z,15
2023-09-27T15:20:04.185Z,15
2023-09-27T15:22:03.396Z,14
2023-09-27T15:23:02.851Z,14
2023-09-27T15:24:03.513Z,14
2023-09-27T15:25:03.548Z,14
2023-09-27T15:26:03.099Z,13
2023-09-27T15:28:03.209Z,14
2023-09-27T15:29:02.730Z,15
2023-09-27T15:30:03.850Z,15
2023-09-27T15:32:03.789Z,14
2023-09-27T15:33:03.792Z,14
2023-09-27T15:34:03.285Z,16
2023-09-27T15:35:03.433Z,15
2023-09-27T15:36:02.866Z,14
2023-09-27T15:37:03.503Z,15
2023-09-27T15:39:03.742Z,15
2023-09-27T15:40:04.266Z,15
2023-09-27T15:42:03.649Z,14
2023-09-27T15:43:03.041Z,14
2023-09-27T15:44:03.166Z,13
2023-09-27T15:45:03.298Z,13
2023-09-27T15:47:03.284Z,15
2023-09-27T15:48:03.104Z,15
2023-09-27T15:50:04.025Z,14
2023-09-27T15:52:03.306Z,14
2023-09-27T15:53:02.861Z,14
2023-09-27T15:54:20.215Z,14
2023-09-27T15:56:03.552Z,15
2023-09-27T15:57:03.181Z,14
2023-09-27T15:58:02.947Z,17
2023-09-27T15:59:03.832Z,16
2023-09-27T16:00:10.928Z,16
2023-09-27T16:02:03.870Z,15
2023-09-27T16:03:04.138Z,15
2023-09-27T16:05:04.102Z,14
2023-09-27T16:07:03.176Z,15
2023-09-27T16:08:02.848Z,15
2023-09-27T16:09:03.959Z,15
2023-09-27T16:10:03.454Z,15
2023-09-27T16:11:03.718Z,15
2023-09-27T16:12:03.588Z,15
2023-09-27T16:14:03.281Z,15
2023-09-27T16:15:03.491Z,15
2023-09-27T16:16:03.078Z,16
2023-09-27T16:18:03.652Z,15
2023-09-27T16:19:03.488Z,15
2023-09-27T16:20:03.808Z,15
2023-09-27T16:21:03.322Z,15
2023-09-27T16:23:03.139Z,15
2023-09-27T16:24:03.057Z,15
2023-09-27T16:25:03.563Z,16
2023-09-27T16:26:03.431Z,15
2023-09-27T16:27:03.275Z,15
2023-09-27T16:28:04.920Z,15
2023-09-27T16:29:04.725Z,15
2023-09-27T16:30:05.985Z,16
2023-09-27T16:32:04.099Z,15
2023-09-27T16:33:02.854Z,15
2023-09-27T16:34:03.143Z,15
2023-09-27T16:35:03.323Z,15
2023-09-27T16:36:02.826Z,14
2023-09-27T16:37:03.373Z,15
2023-09-27T16:38:02.949Z,16
2023-09-27T16:40:04.321Z,15
2023-09-27T16:42:03.450Z,17
2023-09-27T16:43:03.113Z,14
2023-09-27T16:44:02.857Z,15
2023-09-27T16:45:04.246Z,15
2023-09-27T16:47:03.897Z,14
2023-09-27T16:48:03.793Z,15
2023-09-27T16:49:03.418Z,16
2023-09-27T16:50:03.907Z,15
2023-09-27T16:51:03.685Z,16
2023-09-27T16:52:03.404Z,14
2023-09-27T16:53:03.463Z,14
2023-09-27T16:55:03.783Z,17
2023-09-27T16:56:03.523Z,15
2023-09-27T16:58:02.800Z,16
2023-09-27T16:59:03.678Z,15
2023-09-27T17:00:05.504Z,15
2023-09-27T17:02:03.278Z,15
2023-09-27T17:03:03.983Z,16
2023-09-27T17:05:04.112Z,14
2023-09-27T17:07:03.318Z,15
2023-09-27T17:08:03.029Z,15
2023-09-27T17:09:02.766Z,14
2023-09-27T17:10:04.685Z,15
2023-09-27T17:12:03.245Z,15
2023-09-27T17:13:03.213Z,15
2023-09-27T17:14:03.409Z,16
2023-09-27T17:15:03.748Z,15
2023-09-27T17:16:03.848Z,15
2023-09-27T17:17:04.326Z,15
2023-09-27T17:19:03.560Z,15
2023-09-27T17:20:03.988Z,16
2023-09-27T17:22:03.305Z,17
2023-09-27T17:23:03.177Z,16
2023-09-27T17:24:03.280Z,15
2023-09-27T17:25:03.994Z,17
2023-09-27T17:27:03.566Z,16
2023-09-27T17:28:03.024Z,15
2023-09-27T17:30:04.183Z,16
2023-09-27T17:32:03.273Z,18
2023-09-27T17:34:03.449Z,20
2023-09-27T17:35:03.923Z,19
2023-09-27T17:38:02.818Z,18
2023-09-27T17:39:04.142Z,17
2023-09-27T17:40:03.742Z,17
2023-09-27T17:42:03.622Z,19
2023-09-27T17:43:03.072Z,18
2023-09-27T17:44:02.998Z,17
2023-09-27T17:45:03.012Z,17
2023-09-27T17:46:02.696Z,17
2023-09-27T17:47:03.623Z,18
2023-09-27T17:48:03.418Z,17
2023-09-27T17:49:02.946Z,16
2023-09-27T17:50:04.104Z,15
2023-09-27T17:52:03.074Z,17
2023-09-27T17:53:02.704Z,17
2023-09-27T17:54:03.395Z,16
2023-09-27T17:55:03.520Z,15
2023-09-27T17:56:03.145Z,15
2023-09-27T17:58:03.368Z,15
2023-09-27T17:59:02.766Z,16
2023-09-27T18:00:08.118Z,15
2023-09-27T18:02:05.819Z,15
2023-09-27T18:04:03.684Z,16
2023-09-27T18:05:04.264Z,16
2023-09-27T18:07:02.672Z,15
2023-09-27T18:08:03.912Z,16
2023-09-27T18:09:02.727Z,16
2023-09-27T18:10:04.266Z,16
2023-09-27T18:12:03.636Z,15
2023-09-27T18:13:03.146Z,15
2023-09-27T18:14:03.086Z,15
2023-09-27T18:15:29.395Z,14
2023-09-27T18:17:03.700Z,14
2023-09-27T18:18:03.399Z,17
2023-09-27T18:19:02.914Z,16
2023-09-27T18:20:03.826Z,14
2023-09-27T18:21:02.955Z,15